sensor_id;sensor_type;location;lat;lon;timestamp;pressure;altitude;pressure_sealevel;temperature;humidity
41312;BME280;27061;41.648;24.568;2022-10-22T00:02:23;86641.06;;;7.08;46.26
41312;BME280;27061;41.648;24.568;2022-10-22T00:04:50;86645.81;;;7.04;46.42
41312;BME280;27061;41.648;24.568;2022-10-22T00:07:17;86640.31;;;7.04;45.94
41312;BME280;27061;41.648;24.568;2022-10-22T00:09:45;86615.34;;;6.85;45.56
41312;BME280;27061;41.648;24.568;2022-10-22T00:12:14;86639.59;;;6.99;46.16
41312;BME280;27061;41.648;24.568;2022-10-22T00:14:42;86625.72;;;6.93;46.09
41312;BME280;27061;41.648;24.568;2022-10-22T00:17:09;86646.53;;;7.04;46.05
41312;BME280;27061;41.648;24.568;2022-10-22T00:19:38;86600.63;;;6.65;46.73
41312;BME280;27061;41.648;24.568;2022-10-22T00:22:06;86636.06;;;6.92;47.05
41312;BME280;27061;41.648;24.568;2022-10-22T00:24:36;86640.81;;;6.88;47.44
41312;BME280;27061;41.648;24.568;2022-10-22T00:27:05;86642.19;;;6.87;47.94
41312;BME280;27061;41.648;24.568;2022-10-22T00:29:33;86554.06;;;6.24;48.01
41312;BME280;27061;41.648;24.568;2022-10-22T00:32:01;86622.81;;;6.77;47.80
41312;BME280;27061;41.648;24.568;2022-10-22T00:34:28;86620.06;;;6.79;47.48
41312;BME280;27061;41.648;24.568;2022-10-22T00:36:55;86595.09;;;6.63;47.57
41312;BME280;27061;41.648;24.568;2022-10-22T00:39:24;86618.69;;;6.80;48.05
41312;BME280;27061;41.648;24.568;2022-10-22T00:41:53;86601.75;;;6.47;48.09
41312;BME280;27061;41.648;24.568;2022-10-22T00:47:27;86572.59;;;6.26;47.83
41312;BME280;27061;41.648;24.568;2022-10-22T00:49:55;86605.34;;;6.58;47.75
41312;BME280;27061;41.648;24.568;2022-10-22T00:52:23;86604.44;;;6.41;47.76
41312;BME280;27061;41.648;24.568;2022-10-22T00:54:50;86583.03;;;6.34;46.51
41312;BME280;27061;41.648;24.568;2022-10-22T00:57:19;86608.72;;;6.52;47.00
41312;BME280;27061;41.648;24.568;2022-10-22T00:59:47;86607.28;;;6.47;47.38
41312;BME280;27061;41.648;24.568;2022-10-22T01:02:15;86604.50;;;6.45;47.33
41312;BME280;27061;41.648;24.568;2022-10-22T01:04:42;86576.81;;;6.31;47.12
41312;BME280;27061;41.648;24.568;2022-10-22T01:07:19;86553.13;;;6.08;47.58
41312;BME280;27061;41.648;24.568;2022-10-22T01:15:37;86601.72;;;6.43;46.55
41312;BME280;27061;41.648;24.568;2022-10-22T01:18:23;86591.94;;;6.32;46.98
41312;BME280;27061;41.648;24.568;2022-10-22T01:26:38;86585.13;;;6.35;46.04
41312;BME280;27061;41.648;24.568;2022-10-22T01:29:31;86601.59;;;6.33;46.83
41312;BME280;27061;41.648;24.568;2022-10-22T01:32:03;86591.16;;;6.23;46.91
41312;BME280;27061;41.648;24.568;2022-10-22T01:34:32;86550.06;;;5.87;46.97
41312;BME280;27061;41.648;24.568;2022-10-22T01:37:00;86576.53;;;6.11;47.09
41312;BME280;27061;41.648;24.568;2022-10-22T01:39:29;86553.09;;;6.04;46.61
41312;BME280;27061;41.648;24.568;2022-10-22T01:41:57;86586.44;;;6.32;45.91
41312;BME280;27061;41.648;24.568;2022-10-22T01:44:30;86577.31;;;6.17;46.12
41312;BME280;27061;41.648;24.568;2022-10-22T01:47:16;86554.47;;;6.07;45.95
41312;BME280;27061;41.648;24.568;2022-10-22T01:50:19;86587.72;;;6.25;46.58
41312;BME280;27061;41.648;24.568;2022-10-22T01:53:36;86585.06;;;6.31;46.33
41312;BME280;27061;41.648;24.568;2022-10-22T02:04:05;86582.94;;;6.28;47.11
41312;BME280;27061;41.648;24.568;2022-10-22T02:06:37;86585.59;;;6.19;46.86
41312;BME280;27061;41.648;24.568;2022-10-22T02:09:08;86583.41;;;6.10;46.80
41312;BME280;27061;41.648;24.568;2022-10-22T02:11:36;86581.34;;;6.10;46.92
41312;BME280;27061;41.648;24.568;2022-10-22T02:14:06;86559.75;;;5.91;47.13
41312;BME280;27061;41.648;24.568;2022-10-22T02:16:39;86561.16;;;5.94;46.92
41312;BME280;27061;41.648;24.568;2022-10-22T02:19:17;86578.47;;;6.02;46.84
41312;BME280;27061;41.648;24.568;2022-10-22T02:21:45;86570.88;;;5.99;45.97
41312;BME280;27061;41.648;24.568;2022-10-22T02:24:13;86583.31;;;6.06;46.33
41312;BME280;27061;41.648;24.568;2022-10-22T02:27:08;86596.59;;;6.19;46.21
41312;BME280;27061;41.648;24.568;2022-10-22T02:29:48;86590.38;;;6.19;45.61
41312;BME280;27061;41.648;24.568;2022-10-22T02:32:21;86570.94;;;6.03;45.30
41312;BME280;27061;41.648;24.568;2022-10-22T02:34:51;86586.19;;;6.12;45.58
41312;BME280;27061;41.648;24.568;2022-10-22T02:37:20;86589.66;;;6.16;46.06
41312;BME280;27061;41.648;24.568;2022-10-22T02:39:49;86582.06;;;6.15;46.43
41312;BME280;27061;41.648;24.568;2022-10-22T02:42:17;86540.25;;;5.74;46.27
41312;BME280;27061;41.648;24.568;2022-10-22T02:44:44;86582.56;;;5.99;46.86
41312;BME280;27061;41.648;24.568;2022-10-22T02:47:11;86537.47;;;5.72;46.83
41312;BME280;27061;41.648;24.568;2022-10-22T02:49:38;86550.06;;;5.87;46.07
41312;BME280;27061;41.648;24.568;2022-10-22T02:52:05;86590.31;;;6.13;46.28
41312;BME280;27061;41.648;24.568;2022-10-22T02:54:32;86574.78;;;5.87;45.92
41312;BME280;27061;41.648;24.568;2022-10-22T02:56:59;86579.03;;;5.95;46.35
41312;BME280;27061;41.648;24.568;2022-10-22T02:59:26;86590.22;;;6.07;46.74
41312;BME280;27061;41.648;24.568;2022-10-22T03:01:53;86581.81;;;5.97;46.99
41312;BME280;27061;41.648;24.568;2022-10-22T03:04:20;86592.88;;;6.01;46.94
41312;BME280;27061;41.648;24.568;2022-10-22T03:06:47;86592.91;;;6.03;46.50
41312;BME280;27061;41.648;24.568;2022-10-22T03:09:14;86587.28;;;5.93;46.18
41312;BME280;27061;41.648;24.568;2022-10-22T03:11:45;86604.78;;;6.15;46.01
41312;BME280;27061;41.648;24.568;2022-10-22T03:14:13;86613.66;;;6.12;45.50
41312;BME280;27061;41.648;24.568;2022-10-22T03:16:40;86619.91;;;6.16;44.94
41312;BME280;27061;41.648;24.568;2022-10-22T03:19:07;86594.09;;;5.90;44.16
41312;BME280;27061;41.648;24.568;2022-10-22T03:21:38;86610.31;;;6.17;45.48
41312;BME280;27061;41.648;24.568;2022-10-22T03:24:11;86609.53;;;6.11;45.71
41312;BME280;27061;41.648;24.568;2022-10-22T03:26:40;86597.69;;;6.00;45.59
41312;BME280;27061;41.648;24.568;2022-10-22T03:29:09;86588.66;;;5.94;45.61
41312;BME280;27061;41.648;24.568;2022-10-22T03:31:37;86610.88;;;6.10;45.41
41312;BME280;27061;41.648;24.568;2022-10-22T03:34:04;86594.25;;;6.00;45.95
41312;BME280;27061;41.648;24.568;2022-10-22T03:36:31;86615.03;;;6.11;45.94
41312;BME280;27061;41.648;24.568;2022-10-22T03:39:00;86612.28;;;6.11;46.24
41312;BME280;27061;41.648;24.568;2022-10-22T03:41:27;86593.50;;;5.97;46.03
41312;BME280;27061;41.648;24.568;2022-10-22T03:43:54;86589.31;;;5.92;46.27
41312;BME280;27061;41.648;24.568;2022-10-22T03:46:23;86579.00;;;5.91;46.45
41312;BME280;27061;41.648;24.568;2022-10-22T03:48:50;86565.91;;;5.89;45.96
41312;BME280;27061;41.648;24.568;2022-10-22T03:51:17;86609.56;;;6.13;46.34
41312;BME280;27061;41.648;24.568;2022-10-22T03:53:44;86591.53;;;6.02;45.79
41312;BME280;27061;41.648;24.568;2022-10-22T03:56:11;86591.03;;;6.15;45.90
41312;BME280;27061;41.648;24.568;2022-10-22T03:58:39;86588.97;;;6.14;46.05
41312;BME280;27061;41.648;24.568;2022-10-22T04:01:09;86600.66;;;6.14;45.85
41312;BME280;27061;41.648;24.568;2022-10-22T04:03:38;86584.69;;;6.03;45.87
41312;BME280;27061;41.648;24.568;2022-10-22T04:06:07;86587.53;;;6.11;46.12
41312;BME280;27061;41.648;24.568;2022-10-22T04:08:38;86552.88;;;5.90;46.77
41312;BME280;27061;41.648;24.568;2022-10-22T04:11:05;86572.31;;;6.04;47.01
41312;BME280;27061;41.648;24.568;2022-10-22T04:13:32;86579.94;;;6.09;47.20
41312;BME280;27061;41.648;24.568;2022-10-22T04:16:18;86561.28;;;6.02;47.18
41312;BME280;27061;41.648;24.568;2022-10-22T04:18:46;86583.50;;;6.18;46.60
41312;BME280;27061;41.648;24.568;2022-10-22T04:21:17;86515.56;;;5.76;46.69
41312;BME280;27061;41.648;24.568;2022-10-22T04:23:46;86547.53;;;6.00;46.23
41312;BME280;27061;41.648;24.568;2022-10-22T04:26:13;86577.97;;;6.14;46.19
41312;BME280;27061;41.648;24.568;2022-10-22T04:28:41;86568.19;;;6.03;45.72
41312;BME280;27061;41.648;24.568;2022-10-22T04:31:13;86569.69;;;6.12;45.68
41312;BME280;27061;41.648;24.568;2022-10-22T04:33:41;86579.31;;;6.15;45.56
41312;BME280;27061;41.648;24.568;2022-10-22T04:36:11;86581.41;;;6.16;44.47
41312;BME280;27061;41.648;24.568;2022-10-22T04:38:39;86578.66;;;6.16;44.25
41312;BME280;27061;41.648;24.568;2022-10-22T04:41:15;86573.91;;;6.19;44.03
41312;BME280;27061;41.648;24.568;2022-10-22T04:43:42;86574.63;;;6.21;44.47
41312;BME280;27061;41.648;24.568;2022-10-22T04:46:11;86580.78;;;6.20;45.25
41312;BME280;27061;41.648;24.568;2022-10-22T04:48:40;86542.63;;;5.92;46.04
41312;BME280;27061;41.648;24.568;2022-10-22T04:51:11;86583.53;;;6.20;45.78
41312;BME280;27061;41.648;24.568;2022-10-22T04:53:38;86563.38;;;6.03;44.81
41312;BME280;27061;41.648;24.568;2022-10-22T04:56:35;86590.47;;;6.23;44.63
41312;BME280;27061;41.648;24.568;2022-10-22T04:59:06;86604.22;;;6.23;44.25
41312;BME280;27061;41.648;24.568;2022-10-22T05:01:36;86608.34;;;6.26;44.21
41312;BME280;27061;41.648;24.568;2022-10-22T05:04:11;86609.09;;;6.29;44.32
41312;BME280;27061;41.648;24.568;2022-10-22T05:06:38;86613.88;;;6.28;44.00
41312;BME280;27061;41.648;24.568;2022-10-22T05:09:08;86608.34;;;6.24;43.09
41312;BME280;27061;41.648;24.568;2022-10-22T05:11:37;86617.91;;;6.21;43.74
41312;BME280;27061;41.648;24.568;2022-10-22T05:14:08;86608.94;;;6.18;44.47
41312;BME280;27061;41.648;24.568;2022-10-22T05:16:36;86593.22;;;6.23;44.87
41312;BME280;27061;41.648;24.568;2022-10-22T05:19:06;86623.56;;;6.31;45.36
41312;BME280;27061;41.648;24.568;2022-10-22T05:21:34;86629.09;;;6.33;45.71
41312;BME280;27061;41.648;24.568;2022-10-22T05:24:03;86569.50;;;6.00;46.22
41312;BME280;27061;41.648;24.568;2022-10-22T05:26:30;86592.53;;;6.24;46.62
41312;BME280;27061;41.648;24.568;2022-10-22T05:28:57;86589.81;;;6.27;46.07
41312;BME280;27061;41.648;24.568;2022-10-22T05:31:24;86598.81;;;6.31;46.23
41312;BME280;27061;41.648;24.568;2022-10-22T05:33:51;86611.34;;;6.42;46.40
41312;BME280;27061;41.648;24.568;2022-10-22T05:36:20;86615.47;;;6.43;46.60
41312;BME280;27061;41.648;24.568;2022-10-22T05:38:48;86592.56;;;6.27;46.61
41312;BME280;27061;41.648;24.568;2022-10-22T05:41:18;86636.22;;;6.52;47.05
41312;BME280;27061;41.648;24.568;2022-10-22T05:43:46;86629.44;;;6.59;46.44
41312;BME280;27061;41.648;24.568;2022-10-22T05:46:15;86616.25;;;6.50;47.06
41312;BME280;27061;41.648;24.568;2022-10-22T05:48:55;86624.03;;;6.68;47.42
41312;BME280;27061;41.648;24.568;2022-10-22T05:51:24;86599.75;;;6.50;47.16
41312;BME280;27061;41.648;24.568;2022-10-22T05:53:53;86613.09;;;6.72;47.12
41312;BME280;27061;41.648;24.568;2022-10-22T05:56:21;86606.25;;;6.75;46.44
41312;BME280;27061;41.648;24.568;2022-10-22T05:58:49;86595.97;;;6.77;47.14
41312;BME280;27061;41.648;24.568;2022-10-22T06:01:17;86603.63;;;6.85;45.54
41312;BME280;27061;41.648;24.568;2022-10-22T06:03:46;86603.00;;;6.88;44.90
41312;BME280;27061;41.648;24.568;2022-10-22T06:08:52;86605.75;;;6.90;48.51
41312;BME280;27061;41.648;24.568;2022-10-22T06:11:21;86607.91;;;7.00;49.47
41312;BME280;27061;41.648;24.568;2022-10-22T06:13:49;86612.03;;;6.97;51.12
41312;BME280;27061;41.648;24.568;2022-10-22T06:16:16;86625.19;;;7.05;51.43
41312;BME280;27061;41.648;24.568;2022-10-22T06:18:44;86616.28;;;7.08;51.50
41312;BME280;27061;41.648;24.568;2022-10-22T06:21:12;86612.19;;;7.11;49.60
41312;BME280;27061;41.648;24.568;2022-10-22T06:23:42;86608.09;;;7.16;50.97
41312;BME280;27061;41.648;24.568;2022-10-22T06:26:09;86608.31;;;7.37;49.41
41312;BME280;27061;41.648;24.568;2022-10-22T06:28:37;86606.97;;;7.38;48.32
41312;BME280;27061;41.648;24.568;2022-10-22T06:31:05;86616.63;;;7.43;48.55
41312;BME280;27061;41.648;24.568;2022-10-22T06:33:33;86617.47;;;7.55;47.06
41312;BME280;27061;41.648;24.568;2022-10-22T06:36:07;86612.72;;;7.64;47.30
41312;BME280;27061;41.648;24.568;2022-10-22T06:38:34;86614.06;;;7.61;48.85
41312;BME280;27061;41.648;24.568;2022-10-22T06:41:03;86605.78;;;7.59;49.40
41312;BME280;27061;41.648;24.568;2022-10-22T06:43:31;86631.50;;;7.86;50.37
41312;BME280;27061;41.648;24.568;2022-10-22T06:46:02;86611.53;;;7.83;49.98
41312;BME280;27061;41.648;24.568;2022-10-22T06:48:30;86618.66;;;8.13;52.81
41312;BME280;27061;41.648;24.568;2022-10-22T06:51:04;86586.81;;;7.97;47.49
41312;BME280;27061;41.648;24.568;2022-10-22T06:53:32;86604.34;;;8.32;45.84
41312;BME280;27061;41.648;24.568;2022-10-22T06:56:04;86589.88;;;8.34;47.32
41312;BME280;27061;41.648;24.568;2022-10-22T06:58:31;86616.97;;;8.70;48.13
41312;BME280;27061;41.648;24.568;2022-10-22T07:01:03;86616.34;;;8.79;49.12
41312;BME280;27061;41.648;24.568;2022-10-22T07:03:30;86579.72;;;8.69;50.10
41312;BME280;27061;41.648;24.568;2022-10-22T07:05:59;86583.97;;;8.88;49.47
41312;BME280;27061;41.648;24.568;2022-10-22T07:08:27;86609.66;;;9.23;48.71
41312;BME280;27061;41.648;24.568;2022-10-22T07:10:55;86615.94;;;9.40;48.16
41312;BME280;27061;41.648;24.568;2022-10-22T07:13:22;86588.28;;;9.32;47.36
41312;BME280;27061;41.648;24.568;2022-10-22T07:15:53;86605.66;;;9.63;47.27
41312;BME280;27061;41.648;24.568;2022-10-22T07:18:21;86610.53;;;9.84;45.12
41312;BME280;27061;41.648;24.568;2022-10-22T07:20:48;86611.94;;;10.02;45.89
41312;BME280;27061;41.648;24.568;2022-10-22T07:23:15;86601.59;;;10.20;44.12
41312;BME280;27061;41.648;24.568;2022-10-22T07:25:43;86586.38;;;10.23;43.79
41312;BME280;27061;41.648;24.568;2022-10-22T07:28:10;86597.44;;;10.52;42.20
41312;BME280;27061;41.648;24.568;2022-10-22T07:30:38;86571.84;;;10.47;42.46
41312;BME280;27061;41.648;24.568;2022-10-22T07:33:06;86595.31;;;10.85;42.62
41312;BME280;27061;41.648;24.568;2022-10-22T07:35:33;86591.78;;;11.05;41.30
41312;BME280;27061;41.648;24.568;2022-10-22T07:38:00;86593.16;;;11.16;42.94
41312;BME280;27061;41.648;24.568;2022-10-22T07:40:27;86568.25;;;11.12;43.17
41312;BME280;27061;41.648;24.568;2022-10-22T07:42:54;86572.31;;;11.31;42.23
41312;BME280;27061;41.648;24.568;2022-10-22T07:45:21;86565.34;;;11.36;41.25
41312;BME280;27061;41.648;24.568;2022-10-22T07:47:48;86561.16;;;11.45;42.23
41312;BME280;27061;41.648;24.568;2022-10-22T07:50:16;86556.94;;;11.58;42.87
41312;BME280;27061;41.648;24.568;2022-10-22T07:52:44;86549.25;;;11.69;42.85
41312;BME280;27061;41.648;24.568;2022-10-22T07:55:11;86570.59;;;12.03;39.13
41312;BME280;27061;41.648;24.568;2022-10-22T07:57:39;86555.97;;;12.08;39.86
41312;BME280;27061;41.648;24.568;2022-10-22T08:00:07;86606.31;;;12.56;38.70
41312;BME280;27061;41.648;24.568;2022-10-22T08:02:37;86602.72;;;12.69;37.67
41312;BME280;27061;41.648;24.568;2022-10-22T08:05:06;86574.28;;;12.63;38.31
41312;BME280;27061;41.648;24.568;2022-10-22T08:07:33;86594.22;;;12.88;36.27
41312;BME280;27061;41.648;24.568;2022-10-22T08:10:00;86601.59;;;13.17;36.23
41312;BME280;27061;41.648;24.568;2022-10-22T08:12:27;86589.78;;;13.17;38.60
41312;BME280;27061;41.648;24.568;2022-10-22T08:14:55;86578.69;;;13.17;38.59
41312;BME280;27061;41.648;24.568;2022-10-22T08:17:22;86612.28;;;13.60;37.66
41312;BME280;27061;41.648;24.568;2022-10-22T08:19:49;86595.59;;;13.60;36.32
41312;BME280;27061;41.648;24.568;2022-10-22T08:22:16;86598.19;;;13.76;36.06
41312;BME280;27061;41.648;24.568;2022-10-22T08:24:43;86607.56;;;14.06;35.01
41312;BME280;27061;41.648;24.568;2022-10-22T08:27:10;86568.84;;;13.87;37.42
41312;BME280;27061;41.648;24.568;2022-10-22T08:29:37;86619.69;;;14.35;38.63
41312;BME280;27061;41.648;24.568;2022-10-22T08:32:04;86616.03;;;14.51;37.54
41312;BME280;27061;41.648;24.568;2022-10-22T08:34:31;86604.16;;;14.52;37.41
41312;BME280;27061;41.648;24.568;2022-10-22T08:36:58;86565.97;;;14.45;37.86
41312;BME280;27061;41.648;24.568;2022-10-22T08:39:25;86603.59;;;14.89;36.94
41312;BME280;27061;41.648;24.568;2022-10-22T08:45:22;86616.84;;;15.31;35.94
41312;BME280;27061;41.648;24.568;2022-10-22T08:50:36;86620.56;;;15.59;36.65
41312;BME280;27061;41.648;24.568;2022-10-22T08:53:13;86606.56;;;15.63;35.91
41312;BME280;27061;41.648;24.568;2022-10-22T08:55:42;86623.53;;;15.88;35.98
41312;BME280;27061;41.648;24.568;2022-10-22T08:58:29;86627.38;;;16.05;35.75
41312;BME280;27061;41.648;24.568;2022-10-22T09:01:00;86601.59;;;16.02;35.19
41312;BME280;27061;41.648;24.568;2022-10-22T09:06:14;86630.00;;;16.48;34.81
41312;BME280;27061;41.648;24.568;2022-10-22T09:08:42;86618.56;;;16.62;34.03
41312;BME280;27061;41.648;24.568;2022-10-22T09:11:20;86602.38;;;16.67;33.71
41312;BME280;27061;41.648;24.568;2022-10-22T09:13:49;86620.03;;;16.90;32.91
41312;BME280;27061;41.648;24.568;2022-10-22T09:25:23;86617.84;;;17.52;25.92
41312;BME280;27061;41.648;24.568;2022-10-22T09:27:51;86605.22;;;17.53;25.19
41312;BME280;27061;41.648;24.568;2022-10-22T09:30:27;86600.81;;;17.63;27.90
41312;BME280;27061;41.648;24.568;2022-10-22T09:33:05;86614.19;;;17.87;27.96
41312;BME280;27061;41.648;24.568;2022-10-22T09:35:45;86612.56;;;17.96;27.59
41312;BME280;27061;41.648;24.568;2022-10-22T09:38:14;86597.00;;;18.01;27.28
41312;BME280;27061;41.648;24.568;2022-10-22T09:40:50;86609.16;;;18.18;26.71
41312;BME280;27061;41.648;24.568;2022-10-22T09:43:19;86585.47;;;18.13;28.30
41312;BME280;27061;41.648;24.568;2022-10-22T09:45:59;86592.16;;;18.24;26.30
41312;BME280;27061;41.648;24.568;2022-10-22T09:48:39;86586.28;;;18.35;26.79
41312;BME280;27061;41.648;24.568;2022-10-22T09:51:21;86609.31;;;18.64;27.91
41312;BME280;27061;41.648;24.568;2022-10-22T09:53:56;86558.31;;;18.33;27.19
41312;BME280;27061;41.648;24.568;2022-10-22T09:56:27;86586.25;;;18.61;26.88
41312;BME280;27061;41.648;24.568;2022-10-22T09:58:56;86590.00;;;18.77;26.29
41312;BME280;27061;41.648;24.568;2022-10-22T10:01:32;86580.53;;;18.88;26.00
41312;BME280;27061;41.648;24.568;2022-10-22T10:04:07;86599.38;;;19.15;26.25
41312;BME280;27061;41.648;24.568;2022-10-22T10:06:37;86584.59;;;19.16;24.81
41312;BME280;27061;41.648;24.568;2022-10-22T10:11:44;86606.84;;;19.45;26.16
41312;BME280;27061;41.648;24.568;2022-10-22T10:14:18;86599.53;;;19.54;27.26
41312;BME280;27061;41.648;24.568;2022-10-22T10:16:59;86580.00;;;19.50;26.21
41312;BME280;27061;41.648;24.568;2022-10-22T10:39:24;86540.97;;;20.04;27.08
41312;BME280;27061;41.648;24.568;2022-10-22T10:55:40;86532.03;;;20.58;24.90
41312;BME280;27061;41.648;24.568;2022-10-22T10:58:33;86546.09;;;20.77;22.87
41312;BME280;27061;41.648;24.568;2022-10-22T11:07:00;86491.88;;;20.60;24.92
41312;BME280;27061;41.648;24.568;2022-10-22T11:09:47;86528.69;;;20.91;24.61
41312;BME280;27061;41.648;24.568;2022-10-22T11:12:25;86550.13;;;21.19;25.00
41312;BME280;27061;41.648;24.568;2022-10-22T11:15:12;86532.75;;;21.13;23.28
41312;BME280;27061;41.648;24.568;2022-10-22T11:17:45;86552.72;;;21.26;25.31
41312;BME280;27061;41.648;24.568;2022-10-22T11:20:18;86536.03;;;21.19;24.91
41312;BME280;27061;41.648;24.568;2022-10-22T11:22:56;86538.56;;;21.28;25.09
41312;BME280;27061;41.648;24.568;2022-10-22T11:25:47;86538.09;;;21.40;23.85
41312;BME280;27061;41.648;24.568;2022-10-22T11:28:22;86532.34;;;21.42;26.04
41312;BME280;27061;41.648;24.568;2022-10-22T11:31:01;86540.50;;;21.50;25.62
41312;BME280;27061;41.648;24.568;2022-10-22T11:33:52;86527.09;;;21.50;24.36
41312;BME280;27061;41.648;24.568;2022-10-22T11:36:35;86498.97;;;21.32;24.88
41312;BME280;27061;41.648;24.568;2022-10-22T11:39:04;86521.97;;;21.55;25.83
41312;BME280;27061;41.648;24.568;2022-10-22T11:41:32;86531.09;;;21.72;26.94
41312;BME280;27061;41.648;24.568;2022-10-22T11:51:41;86514.38;;;21.85;28.43
41312;BME280;27061;41.648;24.568;2022-10-22T11:54:28;86518.34;;;22.09;25.29
41312;BME280;27061;41.648;24.568;2022-10-22T12:00:40;86523.03;;;22.14;25.28
41312;BME280;27061;41.648;24.568;2022-10-22T12:03:24;86504.41;;;22.05;27.48
41312;BME280;27061;41.648;24.568;2022-10-22T12:19:31;86496.44;;;22.26;27.86
41312;BME280;27061;41.648;24.568;2022-10-22T12:22:24;86490.56;;;22.32;27.95
41312;BME280;27061;41.648;24.568;2022-10-22T12:24:54;86512.31;;;22.50;27.80
41312;BME280;27061;41.648;24.568;2022-10-22T12:27:33;86486.69;;;22.40;27.74
41312;BME280;27061;41.648;24.568;2022-10-22T12:30:02;86496.91;;;22.47;25.39
41312;BME280;27061;41.648;24.568;2022-10-22T12:32:38;86482.50;;;22.39;28.04
41312;BME280;27061;41.648;24.568;2022-10-22T12:35:18;86507.59;;;22.61;27.65
41312;BME280;27061;41.648;24.568;2022-10-22T12:38:11;86501.25;;;22.61;28.44
41312;BME280;27061;41.648;24.568;2022-10-22T12:40:40;86502.53;;;22.64;28.94
41312;BME280;27061;41.648;24.568;2022-10-22T12:43:22;86496.91;;;22.64;28.29
41312;BME280;27061;41.648;24.568;2022-10-22T12:45:50;86485.97;;;22.56;28.53
41312;BME280;27061;41.648;24.568;2022-10-22T12:48:27;86498.66;;;22.72;29.25
41312;BME280;27061;41.648;24.568;2022-10-22T12:50:57;86494.28;;;22.75;28.71
41312;BME280;27061;41.648;24.568;2022-10-22T12:53:33;86483.78;;;22.73;28.55
41312;BME280;27061;41.648;24.568;2022-10-22T12:56:06;86501.66;;;22.84;29.22
41312;BME280;27061;41.648;24.568;2022-10-22T12:58:45;86517.34;;;22.96;30.26
41312;BME280;27061;41.648;24.568;2022-10-22T13:01:14;86471.13;;;22.72;29.89
41312;BME280;27061;41.648;24.568;2022-10-22T13:03:48;86505.69;;;23.04;29.33
41312;BME280;27061;41.648;24.568;2022-10-22T13:11:38;86508.53;;;23.19;29.41
41312;BME280;27061;41.648;24.568;2022-10-22T13:14:21;86510.47;;;23.22;29.21
41312;BME280;27061;41.648;24.568;2022-10-22T13:17:08;86514.47;;;23.27;28.69
41312;BME280;27061;41.648;24.568;2022-10-22T13:19:58;86481.25;;;23.13;30.19
41312;BME280;27061;41.648;24.568;2022-10-22T13:22:36;86518.97;;;23.37;29.52
41312;BME280;27061;41.648;24.568;2022-10-22T13:27:47;86510.31;;;23.41;30.26
41312;BME280;27061;41.648;24.568;2022-10-22T13:30:24;86492.84;;;23.36;29.23
41312;BME280;27061;41.648;24.568;2022-10-22T13:33:03;86518.91;;;23.54;30.79
41312;BME280;27061;41.648;24.568;2022-10-22T13:35:34;86493.91;;;23.44;31.06
41312;BME280;27061;41.648;24.568;2022-10-22T13:38:14;86508.97;;;23.55;31.17
41312;BME280;27061;41.648;24.568;2022-10-22T13:40:44;86506.69;;;23.43;30.66
41312;BME280;27061;41.648;24.568;2022-10-22T13:43:11;86510.31;;;23.41;30.41
41312;BME280;27061;41.648;24.568;2022-10-22T13:45:39;86517.22;;;23.44;30.87
41312;BME280;27061;41.648;24.568;2022-10-22T13:48:12;86519.56;;;23.40;30.98
41312;BME280;27061;41.648;24.568;2022-10-22T13:50:40;86515.63;;;23.32;30.58
41312;BME280;27061;41.648;24.568;2022-10-22T13:53:19;86492.44;;;23.15;30.83
41312;BME280;27061;41.648;24.568;2022-10-22T13:55:48;86508.72;;;23.15;31.15
41312;BME280;27061;41.648;24.568;2022-10-22T13:58:18;86477.69;;;22.83;31.65
41312;BME280;27061;41.648;24.568;2022-10-22T14:00:56;86472.91;;;22.80;32.13
41312;BME280;27061;41.648;24.568;2022-10-22T14:03:32;86507.41;;;22.97;32.11
41312;BME280;27061;41.648;24.568;2022-10-22T14:06:00;86505.25;;;22.83;32.42
41312;BME280;27061;41.648;24.568;2022-10-22T14:08:27;86489.97;;;22.61;32.40
41312;BME280;27061;41.648;24.568;2022-10-22T14:10:54;86507.22;;;22.70;31.73
41312;BME280;27061;41.648;24.568;2022-10-22T14:13:24;86500.69;;;22.42;32.28
41312;BME280;27061;41.648;24.568;2022-10-22T14:15:52;86511.31;;;22.41;32.15
41312;BME280;27061;41.648;24.568;2022-10-22T14:18:22;86500.91;;;22.21;32.06
41312;BME280;27061;41.648;24.568;2022-10-22T14:20:54;86476.41;;;22.01;32.47
41312;BME280;27061;41.648;24.568;2022-10-22T14:23:24;86500.22;;;22.04;31.97
41312;BME280;27061;41.648;24.568;2022-10-22T14:25:53;86508.31;;;21.95;32.39
41312;BME280;27061;41.648;24.568;2022-10-22T14:28:21;86498.59;;;21.75;32.41
41312;BME280;27061;41.648;24.568;2022-10-22T14:30:48;86501.66;;;21.69;32.23
41312;BME280;27061;41.648;24.568;2022-10-22T14:33:18;86496.44;;;21.59;33.24
41312;BME280;27061;41.648;24.568;2022-10-22T14:35:47;86496.59;;;21.55;32.63
41312;BME280;27061;41.648;24.568;2022-10-22T14:38:16;86491.28;;;21.30;33.21
41312;BME280;27061;41.648;24.568;2022-10-22T14:40:44;86501.00;;;21.33;33.68
41312;BME280;27061;41.648;24.568;2022-10-22T14:43:36;86499.44;;;21.19;33.59
41312;BME280;27061;41.648;24.568;2022-10-22T14:46:03;86506.13;;;21.10;33.98
41312;BME280;27061;41.648;24.568;2022-10-22T14:48:30;86504.41;;;21.00;34.12
41312;BME280;27061;41.648;24.568;2022-10-22T14:50:57;86486.84;;;20.81;34.08
41312;BME280;27061;41.648;24.568;2022-10-22T14:53:24;86503.44;;;20.89;34.31
41312;BME280;27061;41.648;24.568;2022-10-22T14:55:51;86500.47;;;20.74;34.13
41312;BME280;27061;41.648;24.568;2022-10-22T14:58:21;86493.19;;;20.63;34.37
41312;BME280;27061;41.648;24.568;2022-10-22T15:00:48;86507.19;;;20.65;34.69
41312;BME280;27061;41.648;24.568;2022-10-22T15:03:15;86478.66;;;20.37;35.03
41312;BME280;27061;41.648;24.568;2022-10-22T15:05:43;86504.13;;;20.52;34.68
41312;BME280;27061;41.648;24.568;2022-10-22T15:08:11;86462.44;;;20.00;34.93
41312;BME280;27061;41.648;24.568;2022-10-22T15:10:39;86494.75;;;20.20;35.33
41312;BME280;27061;41.648;24.568;2022-10-22T15:13:06;86502.00;;;20.13;35.56
41312;BME280;27061;41.648;24.568;2022-10-22T15:15:33;86478.41;;;19.85;35.62